sensor_id;sensor_type;location;lat;lon;timestamp;P1;durP1;ratioP1;P2;durP2;ratioP2
12511;SDS011;6321;53.798;10.382;2023-02-15T00:01:11;31.70;;;19.50;;
12511;SDS011;6321;53.798;10.382;2023-02-15T00:03:37;32.40;;;18.17;;
12511;SDS011;6321;53.798;10.382;2023-02-15T00:06:03;34.63;;;18.57;;
12511;SDS011;6321;53.798;10.382;2023-02-15T00:08:30;32.77;;;18.33;;
12511;SDS011;6321;53.798;10.382;2023-02-15T00:11:05;36.83;;;20.07;;
12511;SDS011;6321;53.798;10.382;2023-02-15T00:13:31;40.43;;;22.67;;
12511;SDS011;6321;53.798;10.382;2023-02-15T00:16:01;41.20;;;21.13;;
12511;SDS011;6321;53.798;10.382;2023-02-15T00:18:27;39.00;;;21.10;;
12511;SDS011;6321;53.798;10.382;2023-02-15T00:20:53;42.50;;;20.93;;
12511;SDS011;6321;53.798;10.382;2023-02-15T00:23:19;40.17;;;22.37;;
12511;SDS011;6321;53.798;10.382;2023-02-15T00:25:45;39.60;;;21.47;;
12511;SDS011;6321;53.798;10.382;2023-02-15T00:28:11;39.53;;;20.93;;
12511;SDS011;6321;53.798;10.382;2023-02-15T00:30:37;35.47;;;19.80;;
12511;SDS011;6321;53.798;10.382;2023-02-15T00:33:03;43.90;;;21.50;;
12511;SDS011;6321;53.798;10.382;2023-02-15T00:35:29;39.37;;;21.70;;
12511;SDS011;6321;53.798;10.382;2023-02-15T00:37:55;34.90;;;20.07;;
12511;SDS011;6321;53.798;10.382;2023-02-15T00:40:21;42.20;;;22.13;;
12511;SDS011;6321;53.798;10.382;2023-02-15T00:42:47;37.13;;;20.40;;
12511;SDS011;6321;53.798;10.382;2023-02-15T00:45:13;40.83;;;21.40;;
12511;SDS011;6321;53.798;10.382;2023-02-15T00:47:39;40.23;;;22.03;;
12511;SDS011;6321;53.798;10.382;2023-02-15T00:50:06;37.77;;;22.17;;
12511;SDS011;6321;53.798;10.382;2023-02-15T00:52:32;41.93;;;22.57;;
12511;SDS011;6321;53.798;10.382;2023-02-15T00:54:58;42.63;;;22.90;;
12511;SDS011;6321;53.798;10.382;2023-02-15T00:57:24;40.37;;;21.57;;
12511;SDS011;6321;53.798;10.382;2023-02-15T00:59:50;44.83;;;22.80;;
12511;SDS011;6321;53.798;10.382;2023-02-15T01:02:16;41.87;;;22.27;;
12511;SDS011;6321;53.798;10.382;2023-02-15T01:04:42;46.33;;;23.60;;
12511;SDS011;6321;53.798;10.382;2023-02-15T01:07:08;55.63;;;27.73;;
12511;SDS011;6321;53.798;10.382;2023-02-15T01:09:34;51.33;;;26.70;;
12511;SDS011;6321;53.798;10.382;2023-02-15T01:12:00;49.23;;;25.27;;
12511;SDS011;6321;53.798;10.382;2023-02-15T01:14:26;57.10;;;27.30;;
12511;SDS011;6321;53.798;10.382;2023-02-15T01:16:52;46.97;;;24.77;;
12511;SDS011;6321;53.798;10.382;2023-02-15T01:19:18;48.80;;;27.40;;
12511;SDS011;6321;53.798;10.382;2023-02-15T01:21:43;58.47;;;26.80;;
12511;SDS011;6321;53.798;10.382;2023-02-15T01:24:13;53.47;;;27.90;;
12511;SDS011;6321;53.798;10.382;2023-02-15T01:26:39;57.90;;;26.47;;
12511;SDS011;6321;53.798;10.382;2023-02-15T01:29:05;56.50;;;28.27;;
12511;SDS011;6321;53.798;10.382;2023-02-15T01:31:31;65.30;;;27.43;;
12511;SDS011;6321;53.798;10.382;2023-02-15T01:33:57;75.07;;;26.80;;
12511;SDS011;6321;53.798;10.382;2023-02-15T01:36:23;62.90;;;27.03;;
12511;SDS011;6321;53.798;10.382;2023-02-15T01:38:49;104.57;;;29.47;;
12511;SDS011;6321;53.798;10.382;2023-02-15T01:41:15;81.23;;;29.93;;
12511;SDS011;6321;53.798;10.382;2023-02-15T01:46:17;60.53;;;29.27;;
12511;SDS011;6321;53.798;10.382;2023-02-15T01:48:45;76.97;;;29.73;;
12511;SDS011;6321;53.798;10.382;2023-02-15T01:51:12;63.83;;;29.60;;
12511;SDS011;6321;53.798;10.382;2023-02-15T01:53:43;66.77;;;28.43;;
12511;SDS011;6321;53.798;10.382;2023-02-15T01:56:16;68.57;;;27.67;;
12511;SDS011;6321;53.798;10.382;2023-02-15T01:58:43;60.43;;;25.63;;
12511;SDS011;6321;53.798;10.382;2023-02-15T02:01:09;61.03;;;27.07;;
12511;SDS011;6321;53.798;10.382;2023-02-15T02:06:20;71.17;;;24.97;;
12511;SDS011;6321;53.798;10.382;2023-02-15T02:08:46;55.23;;;25.97;;
12511;SDS011;6321;53.798;10.382;2023-02-15T02:11:13;71.50;;;25.57;;
12511;SDS011;6321;53.798;10.382;2023-02-15T02:13:40;51.23;;;27.30;;
12511;SDS011;6321;53.798;10.382;2023-02-15T02:21:21;51.77;;;25.03;;
12511;SDS011;6321;53.798;10.382;2023-02-15T02:26:26;57.90;;;24.30;;
12511;SDS011;6321;53.798;10.382;2023-02-15T02:31:29;59.20;;;25.77;;
12511;SDS011;6321;53.798;10.382;2023-02-15T02:34:04;56.43;;;23.93;;
12511;SDS011;6321;53.798;10.382;2023-02-15T02:36:33;56.17;;;24.17;;
12511;SDS011;6321;53.798;10.382;2023-02-15T02:39:22;44.07;;;22.97;;
12511;SDS011;6321;53.798;10.382;2023-02-15T02:41:56;50.00;;;24.67;;
12511;SDS011;6321;53.798;10.382;2023-02-15T02:44:43;40.83;;;23.10;;
12511;SDS011;6321;53.798;10.382;2023-02-15T02:47:19;65.03;;;25.17;;
12511;SDS011;6321;53.798;10.382;2023-02-15T02:49:51;38.80;;;24.00;;
12511;SDS011;6321;53.798;10.382;2023-02-15T02:55:03;51.17;;;23.77;;
12511;SDS011;6321;53.798;10.382;2023-02-15T02:57:30;82.37;;;24.80;;
12511;SDS011;6321;53.798;10.382;2023-02-15T02:59:57;51.90;;;24.00;;
12511;SDS011;6321;53.798;10.382;2023-02-15T03:02:26;39.47;;;23.20;;
12511;SDS011;6321;53.798;10.382;2023-02-15T03:04:56;42.40;;;24.20;;
12511;SDS011;6321;53.798;10.382;2023-02-15T03:07:28;45.23;;;23.13;;
12511;SDS011;6321;53.798;10.382;2023-02-15T03:09:56;55.63;;;23.37;;
12511;SDS011;6321;53.798;10.382;2023-02-15T03:12:24;41.97;;;22.33;;
12511;SDS011;6321;53.798;10.382;2023-02-15T03:14:53;49.53;;;22.67;;
12511;SDS011;6321;53.798;10.382;2023-02-15T03:17:20;56.30;;;22.37;;
12511;SDS011;6321;53.798;10.382;2023-02-15T03:19:47;67.67;;;24.33;;
12511;SDS011;6321;53.798;10.382;2023-02-15T03:22:17;49.20;;;22.47;;
12511;SDS011;6321;53.798;10.382;2023-02-15T03:24:50;50.27;;;21.77;;
12511;SDS011;6321;53.798;10.382;2023-02-15T03:27:17;47.90;;;21.60;;
12511;SDS011;6321;53.798;10.382;2023-02-15T03:29:49;52.20;;;23.17;;
12511;SDS011;6321;53.798;10.382;2023-02-15T03:32:17;43.73;;;22.33;;
12511;SDS011;6321;53.798;10.382;2023-02-15T03:34:44;44.43;;;22.80;;
12511;SDS011;6321;53.798;10.382;2023-02-15T03:37:11;46.70;;;22.17;;
12511;SDS011;6321;53.798;10.382;2023-02-15T03:39:45;64.90;;;22.67;;
12511;SDS011;6321;53.798;10.382;2023-02-15T03:42:14;45.17;;;21.50;;
12511;SDS011;6321;53.798;10.382;2023-02-15T03:44:46;44.43;;;22.90;;
12511;SDS011;6321;53.798;10.382;2023-02-15T03:47:14;45.30;;;22.07;;
12511;SDS011;6321;53.798;10.382;2023-02-15T03:52:13;32.93;;;19.47;;
12511;SDS011;6321;53.798;10.382;2023-02-15T03:54:40;59.93;;;22.67;;
12511;SDS011;6321;53.798;10.382;2023-02-15T03:57:14;102.20;;;24.63;;
12511;SDS011;6321;53.798;10.382;2023-02-15T03:59:58;51.47;;;21.67;;
12511;SDS011;6321;53.798;10.382;2023-02-15T04:03:06;48.50;;;21.00;;
12511;SDS011;6321;53.798;10.382;2023-02-15T04:05:33;35.53;;;21.57;;
12511;SDS011;6321;53.798;10.382;2023-02-15T04:07:59;40.03;;;22.73;;
12511;SDS011;6321;53.798;10.382;2023-02-15T04:10:25;53.17;;;22.87;;
12511;SDS011;6321;53.798;10.382;2023-02-15T04:13:09;40.30;;;21.50;;
12511;SDS011;6321;53.798;10.382;2023-02-15T04:15:35;47.97;;;22.70;;
12511;SDS011;6321;53.798;10.382;2023-02-15T04:18:20;40.80;;;22.17;;
12511;SDS011;6321;53.798;10.382;2023-02-15T04:20:46;57.33;;;23.63;;
12511;SDS011;6321;53.798;10.382;2023-02-15T04:23:30;38.87;;;22.77;;
12511;SDS011;6321;53.798;10.382;2023-02-15T04:26:15;68.50;;;23.70;;
12511;SDS011;6321;53.798;10.382;2023-02-15T04:28:41;54.77;;;24.30;;
12511;SDS011;6321;53.798;10.382;2023-02-15T04:31:07;47.07;;;22.13;;
12511;SDS011;6321;53.798;10.382;2023-02-15T04:33:33;50.30;;;28.92;;
12511;SDS011;6321;53.798;10.382;2023-02-15T04:36:00;56.43;;;25.27;;
12511;SDS011;6321;53.798;10.382;2023-02-15T04:38:26;56.57;;;22.60;;
12511;SDS011;6321;53.798;10.382;2023-02-15T04:40:52;58.57;;;22.27;;
12511;SDS011;6321;53.798;10.382;2023-02-15T04:43:18;51.50;;;21.60;;
12511;SDS011;6321;53.798;10.382;2023-02-15T04:45:48;36.90;;;21.93;;
12511;SDS011;6321;53.798;10.382;2023-02-15T04:48:15;35.03;;;19.47;;
12511;SDS011;6321;53.798;10.382;2023-02-15T04:50:41;62.10;;;22.13;;
12511;SDS011;6321;53.798;10.382;2023-02-15T04:53:07;34.50;;;20.03;;
12511;SDS011;6321;53.798;10.382;2023-02-15T04:55:33;58.87;;;22.50;;
12511;SDS011;6321;53.798;10.382;2023-02-15T04:57:59;38.83;;;20.50;;
12511;SDS011;6321;53.798;10.382;2023-02-15T05:00:25;44.73;;;20.57;;
12511;SDS011;6321;53.798;10.382;2023-02-15T05:02:52;48.37;;;21.83;;
12511;SDS011;6321;53.798;10.382;2023-02-15T05:05:18;31.77;;;18.57;;
12511;SDS011;6321;53.798;10.382;2023-02-15T05:07:44;60.97;;;22.53;;
12511;SDS011;6321;53.798;10.382;2023-02-15T05:10:10;35.40;;;20.87;;
12511;SDS011;6321;53.798;10.382;2023-02-15T05:12:36;36.40;;;21.00;;
12511;SDS011;6321;53.798;10.382;2023-02-15T05:15:02;43.07;;;20.17;;
12511;SDS011;6321;53.798;10.382;2023-02-15T05:17:28;58.40;;;21.33;;
12511;SDS011;6321;53.798;10.382;2023-02-15T05:19:54;37.27;;;21.33;;
12511;SDS011;6321;53.798;10.382;2023-02-15T05:22:20;45.93;;;21.73;;
12511;SDS011;6321;53.798;10.382;2023-02-15T05:24:45;43.43;;;21.10;;
12511;SDS011;6321;53.798;10.382;2023-02-15T05:27:30;64.90;;;21.37;;
12511;SDS011;6321;53.798;10.382;2023-02-15T05:30:15;50.37;;;20.67;;
12511;SDS011;6321;53.798;10.382;2023-02-15T05:32:41;47.33;;;22.17;;
12511;SDS011;6321;53.798;10.382;2023-02-15T05:35:07;44.83;;;21.97;;
12511;SDS011;6321;53.798;10.382;2023-02-15T05:37:33;75.93;;;24.73;;
12511;SDS011;6321;53.798;10.382;2023-02-15T05:39:59;50.97;;;22.07;;
12511;SDS011;6321;53.798;10.382;2023-02-15T05:42:25;41.60;;;20.83;;
12511;SDS011;6321;53.798;10.382;2023-02-15T05:44:51;46.77;;;22.30;;
12511;SDS011;6321;53.798;10.382;2023-02-15T05:47:16;37.40;;;21.43;;
12511;SDS011;6321;53.798;10.382;2023-02-15T05:49:42;57.67;;;22.40;;
12511;SDS011;6321;53.798;10.382;2023-02-15T05:52:08;53.50;;;22.43;;
12511;SDS011;6321;53.798;10.382;2023-02-15T05:54:34;42.20;;;21.77;;
12511;SDS011;6321;53.798;10.382;2023-02-15T05:57:00;52.27;;;20.20;;
12511;SDS011;6321;53.798;10.382;2023-02-15T05:59:26;45.33;;;21.80;;
12511;SDS011;6321;53.798;10.382;2023-02-15T06:01:52;60.67;;;21.40;;
12511;SDS011;6321;53.798;10.382;2023-02-15T06:04:18;63.83;;;23.40;;
12511;SDS011;6321;53.798;10.382;2023-02-15T06:06:44;44.57;;;20.77;;
12511;SDS011;6321;53.798;10.382;2023-02-15T06:09:11;51.40;;;21.27;;
12511;SDS011;6321;53.798;10.382;2023-02-15T06:11:37;68.23;;;18.73;;
12511;SDS011;6321;53.798;10.382;2023-02-15T06:14:03;51.47;;;18.83;;
12511;SDS011;6321;53.798;10.382;2023-02-15T06:16:29;87.27;;;20.83;;
12511;SDS011;6321;53.798;10.382;2023-02-15T06:18:55;53.13;;;19.30;;
12511;SDS011;6321;53.798;10.382;2023-02-15T06:21:21;47.73;;;20.37;;
12511;SDS011;6321;53.798;10.382;2023-02-15T06:23:47;47.40;;;19.43;;
12511;SDS011;6321;53.798;10.382;2023-02-15T06:26:13;34.37;;;19.47;;
12511;SDS011;6321;53.798;10.382;2023-02-15T06:28:39;42.37;;;18.83;;
12511;SDS011;6321;53.798;10.382;2023-02-15T06:31:06;52.53;;;20.97;;
12511;SDS011;6321;53.798;10.382;2023-02-15T06:33:31;35.57;;;18.40;;
12511;SDS011;6321;53.798;10.382;2023-02-15T06:35:59;41.40;;;20.40;;
12511;SDS011;6321;53.798;10.382;2023-02-15T06:38:25;58.53;;;20.50;;
12511;SDS011;6321;53.798;10.382;2023-02-15T06:40:51;43.03;;;19.90;;
12511;SDS011;6321;53.798;10.382;2023-02-15T06:43:17;36.87;;;20.53;;
12511;SDS011;6321;53.798;10.382;2023-02-15T06:45:43;46.13;;;20.00;;
12511;SDS011;6321;53.798;10.382;2023-02-15T06:48:09;42.73;;;19.90;;
12511;SDS011;6321;53.798;10.382;2023-02-15T06:50:36;33.03;;;19.43;;
12511;SDS011;6321;53.798;10.382;2023-02-15T06:53:02;38.37;;;19.83;;
12511;SDS011;6321;53.798;10.382;2023-02-15T06:55:28;49.23;;;20.80;;
12511;SDS011;6321;53.798;10.382;2023-02-15T06:57:54;49.87;;;20.67;;
12511;SDS011;6321;53.798;10.382;2023-02-15T07:00:20;45.20;;;20.60;;
12511;SDS011;6321;53.798;10.382;2023-02-15T07:02:47;63.90;;;20.00;;
12511;SDS011;6321;53.798;10.382;2023-02-15T07:05:13;55.43;;;21.33;;
12511;SDS011;6321;53.798;10.382;2023-02-15T07:07:39;66.73;;;21.57;;
12511;SDS011;6321;53.798;10.382;2023-02-15T07:10:05;38.83;;;18.67;;
12511;SDS011;6321;53.798;10.382;2023-02-15T07:12:31;45.57;;;22.73;;
12511;SDS011;6321;53.798;10.382;2023-02-15T07:15:11;36.97;;;20.30;;
12511;SDS011;6321;53.798;10.382;2023-02-15T07:17:37;54.30;;;19.27;;
12511;SDS011;6321;53.798;10.382;2023-02-15T07:20:07;53.77;;;20.53;;
12511;SDS011;6321;53.798;10.382;2023-02-15T07:22:33;42.93;;;20.17;;
12511;SDS011;6321;53.798;10.382;2023-02-15T07:25:01;55.73;;;20.20;;
12511;SDS011;6321;53.798;10.382;2023-02-15T07:27:27;37.13;;;18.70;;
12511;SDS011;6321;53.798;10.382;2023-02-15T07:29:53;79.03;;;21.23;;
12511;SDS011;6321;53.798;10.382;2023-02-15T07:32:19;47.10;;;18.77;;
12511;SDS011;6321;53.798;10.382;2023-02-15T07:34:45;67.27;;;19.93;;
12511;SDS011;6321;53.798;10.382;2023-02-15T07:37:10;84.37;;;21.90;;
12511;SDS011;6321;53.798;10.382;2023-02-15T07:39:36;46.03;;;18.77;;
12511;SDS011;6321;53.798;10.382;2023-02-15T07:42:02;50.60;;;18.80;;
12511;SDS011;6321;53.798;10.382;2023-02-15T07:44:28;41.77;;;19.90;;
12511;SDS011;6321;53.798;10.382;2023-02-15T07:46:54;58.67;;;20.27;;
12511;SDS011;6321;53.798;10.382;2023-02-15T07:49:20;36.67;;;19.40;;
12511;SDS011;6321;53.798;10.382;2023-02-15T07:51:46;79.67;;;22.93;;
12511;SDS011;6321;53.798;10.382;2023-02-15T07:54:12;52.17;;;20.50;;
12511;SDS011;6321;53.798;10.382;2023-02-15T07:56:38;50.37;;;20.47;;
12511;SDS011;6321;53.798;10.382;2023-02-15T07:59:04;48.93;;;20.40;;
12511;SDS011;6321;53.798;10.382;2023-02-15T08:01:31;46.63;;;19.07;;
12511;SDS011;6321;53.798;10.382;2023-02-15T08:03:58;43.33;;;19.37;;
12511;SDS011;6321;53.798;10.382;2023-02-15T08:06:25;54.03;;;20.00;;
12511;SDS011;6321;53.798;10.382;2023-02-15T08:08:52;51.53;;;20.93;;
12511;SDS011;6321;53.798;10.382;2023-02-15T08:11:25;36.67;;;19.83;;
12511;SDS011;6321;53.798;10.382;2023-02-15T08:14:10;37.73;;;19.73;;
12511;SDS011;6321;53.798;10.382;2023-02-15T08:16:37;48.80;;;19.70;;
12511;SDS011;6321;53.798;10.382;2023-02-15T08:19:11;42.07;;;18.70;;
12511;SDS011;6321;53.798;10.382;2023-02-15T08:21:38;38.17;;;19.90;;
12511;SDS011;6321;53.798;10.382;2023-02-15T08:24:05;41.73;;;19.60;;
12511;SDS011;6321;53.798;10.382;2023-02-15T08:26:32;33.40;;;18.00;;
12511;SDS011;6321;53.798;10.382;2023-02-15T08:28:58;45.17;;;19.20;;
12511;SDS011;6321;53.798;10.382;2023-02-15T08:31:24;38.23;;;17.50;;
12511;SDS011;6321;53.798;10.382;2023-02-15T08:33:51;34.20;;;18.30;;
12511;SDS011;6321;53.798;10.382;2023-02-15T08:36:19;29.13;;;17.27;;
12511;SDS011;6321;53.798;10.382;2023-02-15T08:38:45;36.17;;;17.67;;
12511;SDS011;6321;53.798;10.382;2023-02-15T08:41:12;32.97;;;17.47;;
12511;SDS011;6321;53.798;10.382;2023-02-15T08:43:38;27.53;;;16.53;;
12511;SDS011;6321;53.798;10.382;2023-02-15T08:46:05;33.63;;;17.40;;
12511;SDS011;6321;53.798;10.382;2023-02-15T08:48:31;29.87;;;17.73;;
12511;SDS011;6321;53.798;10.382;2023-02-15T08:50:57;42.20;;;18.33;;
12511;SDS011;6321;53.798;10.382;2023-02-15T08:53:23;41.80;;;19.60;;
12511;SDS011;6321;53.798;10.382;2023-02-15T08:55:55;33.30;;;17.70;;
12511;SDS011;6321;53.798;10.382;2023-02-15T08:58:22;35.80;;;17.17;;
12511;SDS011;6321;53.798;10.382;2023-02-15T09:00:48;30.23;;;17.57;;
12511;SDS011;6321;53.798;10.382;2023-02-15T09:03:14;43.53;;;18.40;;
12511;SDS011;6321;53.798;10.382;2023-02-15T09:05:40;33.43;;;18.37;;
12511;SDS011;6321;53.798;10.382;2023-02-15T09:08:06;32.33;;;18.17;;
12511;SDS011;6321;53.798;10.382;2023-02-15T09:10:31;43.07;;;18.70;;
12511;SDS011;6321;53.798;10.382;2023-02-15T09:12:57;40.97;;;18.07;;
12511;SDS011;6321;53.798;10.382;2023-02-15T09:15:23;39.07;;;17.67;;
12511;SDS011;6321;53.798;10.382;2023-02-15T09:17:49;40.03;;;18.60;;
12511;SDS011;6321;53.798;10.382;2023-02-15T09:20:15;45.37;;;20.30;;
12511;SDS011;6321;53.798;10.382;2023-02-15T09:22:41;33.63;;;18.57;;
12511;SDS011;6321;53.798;10.382;2023-02-15T09:25:07;31.00;;;19.67;;
12511;SDS011;6321;53.798;10.382;2023-02-15T09:27:33;36.37;;;18.73;;
12511;SDS011;6321;53.798;10.382;2023-02-15T09:29:59;41.73;;;18.27;;
12511;SDS011;6321;53.798;10.382;2023-02-15T09:32:25;34.87;;;18.77;;
12511;SDS011;6321;53.798;10.382;2023-02-15T09:34:51;41.30;;;19.47;;
12511;SDS011;6321;53.798;10.382;2023-02-15T09:37:17;35.00;;;18.07;;
12511;SDS011;6321;53.798;10.382;2023-02-15T09:39:43;42.33;;;20.50;;
12511;SDS011;6321;53.798;10.382;2023-02-15T09:49:50;31.40;;;18.73;;
12511;SDS011;6321;53.798;10.382;2023-02-15T09:57:16;31.80;;;17.73;;
12511;SDS011;6321;53.798;10.382;2023-02-15T09:59:54;32.50;;;18.03;;
12511;SDS011;6321;53.798;10.382;2023-02-15T10:05:14;40.70;;;19.57;;
12511;SDS011;6321;53.798;10.382;2023-02-15T10:08:02;33.07;;;20.30;;
12511;SDS011;6321;53.798;10.382;2023-02-15T10:10:38;51.97;;;20.87;;
12511;SDS011;6321;53.798;10.382;2023-02-15T10:18:36;36.27;;;19.23;;
12511;SDS011;6321;53.798;10.382;2023-02-15T10:26:07;29.73;;;18.63;;
12511;SDS011;6321;53.798;10.382;2023-02-15T10:28:42;37.97;;;18.37;;
12511;SDS011;6321;53.798;10.382;2023-02-15T10:31:12;35.40;;;17.60;;
12511;SDS011;6321;53.798;10.382;2023-02-15T10:33:41;37.70;;;20.07;;
12511;SDS011;6321;53.798;10.382;2023-02-15T10:39:02;32.70;;;19.10;;
12511;SDS011;6321;53.798;10.382;2023-02-15T10:44:05;28.87;;;19.00;;
12511;SDS011;6321;53.798;10.382;2023-02-15T10:49:10;31.17;;;18.83;;
12511;SDS011;6321;53.798;10.382;2023-02-15T10:51:58;48.37;;;20.43;;
12511;SDS011;6321;53.798;10.382;2023-02-15T10:54:30;36.10;;;19.17;;
12511;SDS011;6321;53.798;10.382;2023-02-15T10:57:02;31.67;;;19.70;;
12511;SDS011;6321;53.798;10.382;2023-02-15T11:04:58;31.07;;;19.63;;
12511;SDS011;6321;53.798;10.382;2023-02-15T11:07:41;35.63;;;20.07;;
12511;SDS011;6321;53.798;10.382;2023-02-15T11:12:53;29.33;;;18.00;;
12511;SDS011;6321;53.798;10.382;2023-02-15T11:18:11;37.87;;;21.40;;
12511;SDS011;6321;53.798;10.382;2023-02-15T11:20:50;35.23;;;20.60;;
12511;SDS011;6321;53.798;10.382;2023-02-15T11:23:19;35.47;;;20.43;;
12511;SDS011;6321;53.798;10.382;2023-02-15T11:25:47;40.03;;;23.43;;
12511;SDS011;6321;53.798;10.382;2023-02-15T11:28:34;37.73;;;22.63;;
12511;SDS011;6321;53.798;10.382;2023-02-15T11:31:02;37.97;;;22.17;;
12511;SDS011;6321;53.798;10.382;2023-02-15T11:33:37;44.53;;;24.20;;
12511;SDS011;6321;53.798;10.382;2023-02-15T11:36:09;38.10;;;23.40;;
12511;SDS011;6321;53.798;10.382;2023-02-15T11:38:37;43.37;;;24.00;;
12511;SDS011;6321;53.798;10.382;2023-02-15T11:41:12;47.57;;;26.00;;
12511;SDS011;6321;53.798;10.382;2023-02-15T11:46:05;40.13;;;23.93;;
12511;SDS011;6321;53.798;10.382;2023-02-15T11:48:31;38.73;;;23.43;;
12511;SDS011;6321;53.798;10.382;2023-02-15T11:50:58;34.87;;;23.37;;
12511;SDS011;6321;53.798;10.382;2023-02-15T11:53:31;41.53;;;23.63;;
12511;SDS011;6321;53.798;10.382;2023-02-15T11:55:58;40.23;;;24.87;;
12511;SDS011;6321;53.798;10.382;2023-02-15T11:58:37;45.93;;;25.67;;
12511;SDS011;6321;53.798;10.382;2023-02-15T12:01:27;48.13;;;27.17;;
12511;SDS011;6321;53.798;10.382;2023-02-15T12:03:55;47.23;;;25.47;;
12511;SDS011;6321;53.798;10.382;2023-02-15T12:06:25;45.70;;;25.03;;
12511;SDS011;6321;53.798;10.382;2023-02-15T12:08:54;44.70;;;25.80;;
12511;SDS011;6321;53.798;10.382;2023-02-15T12:11:25;53.77;;;25.97;;
12511;SDS011;6321;53.798;10.382;2023-02-15T12:13:56;50.37;;;27.10;;
12511;SDS011;6321;53.798;10.382;2023-02-15T12:16:22;49.57;;;27.63;;
12511;SDS011;6321;53.798;10.382;2023-02-15T12:18:48;55.93;;;28.80;;
12511;SDS011;6321;53.798;10.382;2023-02-15T12:21:15;47.10;;;27.60;;
12511;SDS011;6321;53.798;10.382;2023-02-15T12:23:43;53.93;;;27.67;;
12511;SDS011;6321;53.798;10.382;2023-02-15T12:26:12;43.33;;;26.10;;
12511;SDS011;6321;53.798;10.382;2023-02-15T12:28:40;45.70;;;25.13;;
12511;SDS011;6321;53.798;10.382;2023-02-15T12:31:07;46.37;;;26.50;;
12511;SDS011;6321;53.798;10.382;2023-02-15T12:33:36;55.00;;;27.47;;
12511;SDS011;6321;53.798;10.382;2023-02-15T12:36:10;46.90;;;27.57;;
12511;SDS011;6321;53.798;10.382;2023-02-15T12:38:37;51.00;;;27.30;;
12511;SDS011;6321;53.798;10.382;2023-02-15T12:41:04;46.90;;;26.13;;
12511;SDS011;6321;53.798;10.382;2023-02-15T12:43:32;47.53;;;26.23;;
12511;SDS011;6321;53.798;10.382;2023-02-15T12:46:31;43.90;;;26.60;;
12511;SDS011;6321;53.798;10.382;2023-02-15T12:49:07;50.13;;;27.43;;
12511;SDS011;6321;53.798;10.382;2023-02-15T12:51:46;41.17;;;25.10;;
12511;SDS011;6321;53.798;10.382;2023-02-15T12:54:16;43.53;;;24.57;;
12511;SDS011;6321;53.798;10.382;2023-02-15T12:56:42;45.37;;;25.80;;
12511;SDS011;6321;53.798;10.382;2023-02-15T12:59:12;47.33;;;28.67;;
12511;SDS011;6321;53.798;10.382;2023-02-15T13:01:39;48.87;;;27.83;;
12511;SDS011;6321;53.798;10.382;2023-02-15T13:04:14;50.03;;;29.53;;
12511;SDS011;6321;53.798;10.382;2023-02-15T13:06:48;51.07;;;30.17;;
12511;SDS011;6321;53.798;10.382;2023-02-15T13:09:18;63.03;;;31.03;;
12511;SDS011;6321;53.798;10.382;2023-02-15T13:11:45;58.63;;;30.00;;
12511;SDS011;6321;53.798;10.382;2023-02-15T13:14:18;51.07;;;28.67;;
12511;SDS011;6321;53.798;10.382;2023-02-15T13:16:45;51.40;;;28.83;;
12511;SDS011;6321;53.798;10.382;2023-02-15T13:19:14;47.70;;;29.77;;
12511;SDS011;6321;53.798;10.382;2023-02-15T13:21:43;47.33;;;28.37;;
12511;SDS011;6321;53.798;10.382;2023-02-15T13:24:26;54.40;;;30.07;;
12511;SDS011;6321;53.798;10.382;2023-02-15T13:26:54;53.40;;;29.23;;
12511;SDS011;6321;53.798;10.382;2023-02-15T13:29:31;56.60;;;29.23;;
12511;SDS011;6321;53.798;10.382;2023-02-15T13:32:00;61.57;;;33.40;;
12511;SDS011;6321;53.798;10.382;2023-02-15T13:34:34;57.67;;;31.67;;
12511;SDS011;6321;53.798;10.382;2023-02-15T13:37:23;63.07;;;33.30;;
12511;SDS011;6321;53.798;10.382;2023-02-15T13:39:57;67.80;;;34.67;;
12511;SDS011;6321;53.798;10.382;2023-02-15T13:42:25;62.47;;;33.60;;
12511;SDS011;6321;53.798;10.382;2023-02-15T13:45:08;63.63;;;34.53;;
12511;SDS011;6321;53.798;10.382;2023-02-15T13:53:02;57.60;;;33.83;;
12511;SDS011;6321;53.798;10.382;2023-02-15T14:03:24;73.93;;;37.23;;
12511;SDS011;6321;53.798;10.382;2023-02-15T14:05:56;70.90;;;38.50;;
12511;SDS011;6321;53.798;10.382;2023-02-15T14:11:01;68.50;;;36.37;;
12511;SDS011;6321;53.798;10.382;2023-02-15T14:13:35;73.63;;;36.77;;
12511;SDS011;6321;53.798;10.382;2023-02-15T14:16:20;70.67;;;35.33;;
12511;SDS011;6321;53.798;10.382;2023-02-15T14:21:29;73.97;;;38.83;;
12511;SDS011;6321;53.798;10.382;2023-02-15T14:24:00;72.77;;;38.43;;
12511;SDS011;6321;53.798;10.382;2023-02-15T14:29:29;80.50;;;41.63;;
12511;SDS011;6321;53.798;10.382;2023-02-15T14:32:04;88.93;;;45.77;;
12511;SDS011;6321;53.798;10.382;2023-02-15T14:34:37;93.47;;;44.17;;
12511;SDS011;6321;53.798;10.382;2023-02-15T14:37:06;80.03;;;42.63;;
12511;SDS011;6321;53.798;10.382;2023-02-15T14:39:37;88.20;;;43.80;;
12511;SDS011;6321;53.798;10.382;2023-02-15T14:47:38;97.63;;;46.93;;
12511;SDS011;6321;53.798;10.382;2023-02-15T14:53:14;101.43;;;48.70;;
12511;SDS011;6321;53.798;10.382;2023-02-15T14:55:40;102.70;;;49.13;;
12511;SDS011;6321;53.798;10.382;2023-02-15T14:58:12;97.60;;;48.07;;
12511;SDS011;6321;53.798;10.382;2023-02-15T15:00:39;99.50;;;47.47;;
12511;SDS011;6321;53.798;10.382;2023-02-15T15:03:22;106.70;;;48.67;;
12511;SDS011;6321;53.798;10.382;2023-02-15T15:05:50;104.20;;;49.77;;
12511;SDS011;6321;53.798;10.382;2023-02-15T15:08:26;117.30;;;54.37;;
12511;SDS011;6321;53.798;10.382;2023-02-15T15:10:53;120.10;;;52.30;;
12511;SDS011;6321;53.798;10.382;2023-02-15T15:16:23;114.77;;;52.47;;
12511;SDS011;6321;53.798;10.382;2023-02-15T15:18:50;111.43;;;51.47;;
12511;SDS011;6321;53.798;10.382;2023-02-15T15:24:01;108.90;;;50.90;;
12511;SDS011;6321;53.798;10.382;2023-02-15T15:26:28;121.17;;;53.63;;
12511;SDS011;6321;53.798;10.382;2023-02-15T15:28:56;119.77;;;53.10;;
12511;SDS011;6321;53.798;10.382;2023-02-15T15:44:11;116.23;;;51.00;;
12511;SDS011;6321;53.798;10.382;2023-02-15T15:46:58;119.87;;;52.97;;
12511;SDS011;6321;53.798;10.382;2023-02-15T15:49:30;108.10;;;51.43;;
12511;SDS011;6321;53.798;10.382;2023-02-15T15:51:59;107.93;;;51.40;;
12511;SDS011;6321;53.798;10.382;2023-02-15T15:54:26;111.90;;;49.70;;
12511;SDS011;6321;53.798;10.382;2023-02-15T15:56:56;121.10;;;49.17;;
12511;SDS011;6321;53.798;10.382;2023-02-15T15:59:24;110.53;;;48.27;;
12511;SDS011;6321;53.798;10.382;2023-02-15T16:01:50;106.10;;;49.97;;
12511;SDS011;6321;53.798;10.382;2023-02-15T16:04:27;114.80;;;50.90;;
12511;SDS011;6321;53.798;10.382;2023-02-15T16:06:54;117.50;;;49.43;;
12511;SDS011;6321;53.798;10.382;2023-02-15T16:09:22;116.40;;;53.43;;
12511;SDS011;6321;53.798;10.382;2023-02-15T16:11:49;109.43;;;49.27;;
12511;SDS011;6321;53.798;10.382;2023-02-15T16:14:17;113.53;;;50.33;;
12511;SDS011;6321;53.798;10.382;2023-02-15T16:16:48;112.13;;;50.73;;
12511;SDS011;6321;53.798;10.382;2023-02-15T16:19:38;116.30;;;52.53;;
12511;SDS011;6321;53.798;10.382;2023-02-15T16:22:02;124.70;;;52.70;;
12511;SDS011;6321;53.798;10.382;2023-02-15T16:27:09;117.40;;;50.63;;
12511;SDS011;6321;53.798;10.382;2023-02-15T16:29:37;132.50;;;52.90;;
12511;SDS011;6321;53.798;10.382;2023-02-15T16:32:15;122.90;;;52.93;;